sensor_id;sensor_type;location;lat;lon;timestamp;P1;durP1;ratioP1;P2;durP2;ratioP2
2099;SDS011;1055;48.854;9.302;2022-08-25T00:00:45;9.30;;;5.43;;
2099;SDS011;1055;48.854;9.302;2022-08-25T00:03:11;8.10;;;5.10;;
2099;SDS011;1055;48.854;9.302;2022-08-25T00:05:38;9.20;;;5.47;;
2099;SDS011;1055;48.854;9.302;2022-08-25T00:08:04;7.60;;;4.93;;
2099;SDS011;1055;48.854;9.302;2022-08-25T00:10:31;10.13;;;5.00;;
2099;SDS011;1055;48.854;9.302;2022-08-25T00:12:58;7.87;;;5.27;;
2099;SDS011;1055;48.854;9.302;2022-08-25T00:15:24;9.40;;;5.57;;
2099;SDS011;1055;48.854;9.302;2022-08-25T00:17:50;8.33;;;5.23;;
2099;SDS011;1055;48.854;9.302;2022-08-25T00:20:16;7.80;;;5.20;;
2099;SDS011;1055;48.854;9.302;2022-08-25T00:22:42;9.00;;;5.90;;
2099;SDS011;1055;48.854;9.302;2022-08-25T00:25:08;8.80;;;5.30;;
2099;SDS011;1055;48.854;9.302;2022-08-25T00:27:34;7.53;;;4.93;;
2099;SDS011;1055;48.854;9.302;2022-08-25T00:29:59;8.00;;;5.23;;
2099;SDS011;1055;48.854;9.302;2022-08-25T00:32:25;7.93;;;5.30;;
2099;SDS011;1055;48.854;9.302;2022-08-25T00:34:51;8.17;;;4.97;;
2099;SDS011;1055;48.854;9.302;2022-08-25T00:37:17;9.17;;;5.67;;
2099;SDS011;1055;48.854;9.302;2022-08-25T00:39:43;7.80;;;5.20;;
2099;SDS011;1055;48.854;9.302;2022-08-25T00:42:09;8.93;;;5.60;;
2099;SDS011;1055;48.854;9.302;2022-08-25T00:44:37;7.83;;;4.80;;
2099;SDS011;1055;48.854;9.302;2022-08-25T00:47:04;7.97;;;5.10;;
2099;SDS011;1055;48.854;9.302;2022-08-25T00:49:32;8.33;;;5.10;;
2099;SDS011;1055;48.854;9.302;2022-08-25T00:54:38;11.20;;;5.70;;
2099;SDS011;1055;48.854;9.302;2022-08-25T00:57:10;8.80;;;5.07;;
2099;SDS011;1055;48.854;9.302;2022-08-25T00:59:38;8.10;;;5.40;;
2099;SDS011;1055;48.854;9.302;2022-08-25T01:02:04;8.10;;;5.30;;
2099;SDS011;1055;48.854;9.302;2022-08-25T01:04:32;7.73;;;4.80;;
2099;SDS011;1055;48.854;9.302;2022-08-25T01:06:58;7.40;;;4.90;;
2099;SDS011;1055;48.854;9.302;2022-08-25T01:09:25;8.60;;;5.27;;
2099;SDS011;1055;48.854;9.302;2022-08-25T01:11:51;8.97;;;5.80;;
2099;SDS011;1055;48.854;9.302;2022-08-25T01:14:18;8.40;;;5.50;;
2099;SDS011;1055;48.854;9.302;2022-08-25T01:16:45;7.47;;;5.17;;
2099;SDS011;1055;48.854;9.302;2022-08-25T01:19:12;9.40;;;5.67;;
2099;SDS011;1055;48.854;9.302;2022-08-25T01:21:40;7.43;;;4.83;;
2099;SDS011;1055;48.854;9.302;2022-08-25T01:24:13;7.70;;;5.00;;
2099;SDS011;1055;48.854;9.302;2022-08-25T01:26:47;10.33;;;5.77;;
2099;SDS011;1055;48.854;9.302;2022-08-25T01:29:13;9.07;;;5.70;;
2099;SDS011;1055;48.854;9.302;2022-08-25T01:31:45;8.20;;;5.10;;
2099;SDS011;1055;48.854;9.302;2022-08-25T01:34:12;7.80;;;4.80;;
2099;SDS011;1055;48.854;9.302;2022-08-25T01:36:39;7.93;;;5.10;;
2099;SDS011;1055;48.854;9.302;2022-08-25T01:39:06;9.37;;;5.87;;
2099;SDS011;1055;48.854;9.302;2022-08-25T01:43:58;8.70;;;5.33;;
2099;SDS011;1055;48.854;9.302;2022-08-25T01:46:24;8.37;;;5.53;;
2099;SDS011;1055;48.854;9.302;2022-08-25T01:48:50;8.63;;;5.50;;
2099;SDS011;1055;48.854;9.302;2022-08-25T01:51:18;8.23;;;5.67;;
2099;SDS011;1055;48.854;9.302;2022-08-25T01:53:47;8.87;;;5.80;;
2099;SDS011;1055;48.854;9.302;2022-08-25T01:56:14;8.97;;;5.17;;
2099;SDS011;1055;48.854;9.302;2022-08-25T01:58:41;9.40;;;6.33;;
2099;SDS011;1055;48.854;9.302;2022-08-25T02:01:12;9.83;;;6.27;;
2099;SDS011;1055;48.854;9.302;2022-08-25T02:03:42;9.43;;;6.20;;
2099;SDS011;1055;48.854;9.302;2022-08-25T02:06:17;10.67;;;6.90;;
2099;SDS011;1055;48.854;9.302;2022-08-25T02:08:49;9.10;;;5.70;;
2099;SDS011;1055;48.854;9.302;2022-08-25T02:11:16;10.47;;;7.40;;
2099;SDS011;1055;48.854;9.302;2022-08-25T02:13:42;8.60;;;6.07;;
2099;SDS011;1055;48.854;9.302;2022-08-25T02:16:08;9.33;;;6.40;;
2099;SDS011;1055;48.854;9.302;2022-08-25T02:18:38;9.27;;;6.03;;
2099;SDS011;1055;48.854;9.302;2022-08-25T02:21:04;9.50;;;6.47;;
2099;SDS011;1055;48.854;9.302;2022-08-25T02:23:30;11.03;;;6.30;;
2099;SDS011;1055;48.854;9.302;2022-08-25T02:25:55;9.67;;;6.10;;
2099;SDS011;1055;48.854;9.302;2022-08-25T02:28:21;10.73;;;6.70;;
2099;SDS011;1055;48.854;9.302;2022-08-25T02:30:47;10.40;;;7.17;;
2099;SDS011;1055;48.854;9.302;2022-08-25T02:33:13;10.60;;;7.30;;
2099;SDS011;1055;48.854;9.302;2022-08-25T02:35:38;10.87;;;7.90;;
2099;SDS011;1055;48.854;9.302;2022-08-25T02:38:04;9.10;;;6.63;;
2099;SDS011;1055;48.854;9.302;2022-08-25T02:40:30;10.43;;;6.97;;
2099;SDS011;1055;48.854;9.302;2022-08-25T02:42:56;12.10;;;6.70;;
2099;SDS011;1055;48.854;9.302;2022-08-25T02:45:21;10.50;;;7.13;;
2099;SDS011;1055;48.854;9.302;2022-08-25T02:47:47;10.10;;;6.50;;
2099;SDS011;1055;48.854;9.302;2022-08-25T02:50:13;11.60;;;7.30;;
2099;SDS011;1055;48.854;9.302;2022-08-25T02:52:38;11.03;;;6.77;;
2099;SDS011;1055;48.854;9.302;2022-08-25T02:55:06;11.07;;;7.07;;
2099;SDS011;1055;48.854;9.302;2022-08-25T02:57:33;9.23;;;6.03;;
2099;SDS011;1055;48.854;9.302;2022-08-25T03:00:00;10.40;;;6.60;;
2099;SDS011;1055;48.854;9.302;2022-08-25T03:02:26;9.47;;;6.27;;
2099;SDS011;1055;48.854;9.302;2022-08-25T03:04:52;9.10;;;6.00;;
2099;SDS011;1055;48.854;9.302;2022-08-25T03:07:18;9.87;;;6.30;;
2099;SDS011;1055;48.854;9.302;2022-08-25T03:09:45;9.70;;;6.67;;
2099;SDS011;1055;48.854;9.302;2022-08-25T03:12:11;10.83;;;6.30;;
2099;SDS011;1055;48.854;9.302;2022-08-25T03:14:37;10.27;;;6.57;;
2099;SDS011;1055;48.854;9.302;2022-08-25T03:17:04;10.33;;;7.30;;
2099;SDS011;1055;48.854;9.302;2022-08-25T03:19:31;9.60;;;6.60;;
2099;SDS011;1055;48.854;9.302;2022-08-25T03:21:56;11.73;;;7.00;;
2099;SDS011;1055;48.854;9.302;2022-08-25T03:24:23;14.23;;;7.40;;
2099;SDS011;1055;48.854;9.302;2022-08-25T03:26:50;10.60;;;6.90;;
2099;SDS011;1055;48.854;9.302;2022-08-25T03:29:24;10.03;;;7.50;;
2099;SDS011;1055;48.854;9.302;2022-08-25T03:31:51;11.03;;;7.17;;
2099;SDS011;1055;48.854;9.302;2022-08-25T03:34:19;19.30;;;9.80;;
2099;SDS011;1055;48.854;9.302;2022-08-25T03:36:46;16.10;;;8.30;;
2099;SDS011;1055;48.854;9.302;2022-08-25T03:39:14;15.50;;;7.60;;
2099;SDS011;1055;48.854;9.302;2022-08-25T03:41:41;13.47;;;7.77;;
2099;SDS011;1055;48.854;9.302;2022-08-25T03:44:07;12.53;;;8.00;;
2099;SDS011;1055;48.854;9.302;2022-08-25T03:46:36;13.90;;;7.53;;
2099;SDS011;1055;48.854;9.302;2022-08-25T03:49:06;10.60;;;7.80;;
2099;SDS011;1055;48.854;9.302;2022-08-25T03:51:44;10.77;;;7.40;;
2099;SDS011;1055;48.854;9.302;2022-08-25T03:54:12;11.87;;;7.50;;
2099;SDS011;1055;48.854;9.302;2022-08-25T03:56:39;14.13;;;7.30;;
2099;SDS011;1055;48.854;9.302;2022-08-25T03:59:05;9.50;;;6.40;;
2099;SDS011;1055;48.854;9.302;2022-08-25T04:01:34;11.87;;;6.17;;
2099;SDS011;1055;48.854;9.302;2022-08-25T04:04:06;10.03;;;6.07;;
2099;SDS011;1055;48.854;9.302;2022-08-25T04:06:33;9.60;;;6.60;;
2099;SDS011;1055;48.854;9.302;2022-08-25T04:08:59;10.87;;;6.90;;
2099;SDS011;1055;48.854;9.302;2022-08-25T04:11:25;9.40;;;6.30;;
2099;SDS011;1055;48.854;9.302;2022-08-25T04:13:52;10.73;;;6.97;;
2099;SDS011;1055;48.854;9.302;2022-08-25T04:16:28;10.73;;;6.40;;
2099;SDS011;1055;48.854;9.302;2022-08-25T04:18:56;11.93;;;7.07;;
2099;SDS011;1055;48.854;9.302;2022-08-25T04:21:24;9.80;;;6.60;;
2099;SDS011;1055;48.854;9.302;2022-08-25T04:23:51;10.20;;;7.03;;
2099;SDS011;1055;48.854;9.302;2022-08-25T04:26:19;9.00;;;6.20;;
2099;SDS011;1055;48.854;9.302;2022-08-25T04:28:56;8.97;;;6.10;;
2099;SDS011;1055;48.854;9.302;2022-08-25T04:31:24;9.60;;;6.50;;
2099;SDS011;1055;48.854;9.302;2022-08-25T04:33:51;9.57;;;6.73;;
2099;SDS011;1055;48.854;9.302;2022-08-25T04:36:17;9.97;;;6.47;;
2099;SDS011;1055;48.854;9.302;2022-08-25T04:38:44;11.30;;;7.10;;
2099;SDS011;1055;48.854;9.302;2022-08-25T04:41:11;9.43;;;7.10;;
2099;SDS011;1055;48.854;9.302;2022-08-25T04:43:39;10.23;;;6.77;;
2099;SDS011;1055;48.854;9.302;2022-08-25T04:46:10;10.80;;;7.07;;
2099;SDS011;1055;48.854;9.302;2022-08-25T04:48:40;11.33;;;6.30;;
2099;SDS011;1055;48.854;9.302;2022-08-25T04:51:07;10.50;;;7.53;;
2099;SDS011;1055;48.854;9.302;2022-08-25T04:53:35;8.80;;;6.23;;
2099;SDS011;1055;48.854;9.302;2022-08-25T04:56:04;11.20;;;7.40;;
2099;SDS011;1055;48.854;9.302;2022-08-25T04:58:31;10.33;;;6.67;;
2099;SDS011;1055;48.854;9.302;2022-08-25T05:01:07;10.07;;;7.20;;
2099;SDS011;1055;48.854;9.302;2022-08-25T05:03:41;12.37;;;8.60;;
2099;SDS011;1055;48.854;9.302;2022-08-25T05:06:08;15.50;;;8.17;;
2099;SDS011;1055;48.854;9.302;2022-08-25T05:08:34;16.33;;;8.40;;
2099;SDS011;1055;48.854;9.302;2022-08-25T05:11:04;13.87;;;9.37;;
2099;SDS011;1055;48.854;9.302;2022-08-25T05:13:31;12.30;;;9.17;;
2099;SDS011;1055;48.854;9.302;2022-08-25T05:15:58;12.10;;;6.77;;
2099;SDS011;1055;48.854;9.302;2022-08-25T05:18:24;11.00;;;8.13;;
2099;SDS011;1055;48.854;9.302;2022-08-25T05:20:52;12.53;;;8.27;;
2099;SDS011;1055;48.854;9.302;2022-08-25T05:23:19;15.10;;;8.43;;
2099;SDS011;1055;48.854;9.302;2022-08-25T05:25:46;14.90;;;9.73;;
2099;SDS011;1055;48.854;9.302;2022-08-25T05:28:12;11.20;;;8.00;;
2099;SDS011;1055;48.854;9.302;2022-08-25T05:30:39;11.27;;;7.27;;
2099;SDS011;1055;48.854;9.302;2022-08-25T05:33:07;12.77;;;7.60;;
2099;SDS011;1055;48.854;9.302;2022-08-25T05:35:34;10.57;;;6.60;;
2099;SDS011;1055;48.854;9.302;2022-08-25T05:38:00;9.97;;;6.67;;
2099;SDS011;1055;48.854;9.302;2022-08-25T05:40:28;10.40;;;7.57;;
2099;SDS011;1055;48.854;9.302;2022-08-25T05:42:54;12.73;;;7.90;;
2099;SDS011;1055;48.854;9.302;2022-08-25T05:45:19;13.60;;;7.50;;
2099;SDS011;1055;48.854;9.302;2022-08-25T05:47:45;10.67;;;8.03;;
2099;SDS011;1055;48.854;9.302;2022-08-25T05:50:11;12.40;;;7.30;;
2099;SDS011;1055;48.854;9.302;2022-08-25T05:52:37;11.93;;;7.63;;
2099;SDS011;1055;48.854;9.302;2022-08-25T05:55:04;12.10;;;7.93;;
2099;SDS011;1055;48.854;9.302;2022-08-25T05:57:31;11.93;;;7.90;;
2099;SDS011;1055;48.854;9.302;2022-08-25T05:59:58;11.10;;;8.50;;
2099;SDS011;1055;48.854;9.302;2022-08-25T06:02:24;14.13;;;9.03;;
2099;SDS011;1055;48.854;9.302;2022-08-25T06:05:09;14.43;;;9.20;;
2099;SDS011;1055;48.854;9.302;2022-08-25T06:07:37;13.43;;;9.40;;
2099;SDS011;1055;48.854;9.302;2022-08-25T06:10:04;15.17;;;9.50;;
2099;SDS011;1055;48.854;9.302;2022-08-25T06:12:31;14.93;;;10.00;;
2099;SDS011;1055;48.854;9.302;2022-08-25T06:15:00;14.87;;;9.63;;
2099;SDS011;1055;48.854;9.302;2022-08-25T06:17:26;14.53;;;9.40;;
2099;SDS011;1055;48.854;9.302;2022-08-25T06:19:52;13.10;;;9.27;;
2099;SDS011;1055;48.854;9.302;2022-08-25T06:22:19;15.97;;;9.17;;
2099;SDS011;1055;48.854;9.302;2022-08-25T06:24:45;13.50;;;9.80;;
2099;SDS011;1055;48.854;9.302;2022-08-25T06:27:11;16.90;;;10.83;;
2099;SDS011;1055;48.854;9.302;2022-08-25T06:29:37;13.07;;;9.37;;
2099;SDS011;1055;48.854;9.302;2022-08-25T06:32:03;12.20;;;9.50;;
2099;SDS011;1055;48.854;9.302;2022-08-25T06:34:29;13.17;;;9.37;;
2099;SDS011;1055;48.854;9.302;2022-08-25T06:36:55;13.03;;;9.30;;
2099;SDS011;1055;48.854;9.302;2022-08-25T06:39:20;12.67;;;8.30;;
2099;SDS011;1055;48.854;9.302;2022-08-25T06:41:50;13.13;;;9.73;;
2099;SDS011;1055;48.854;9.302;2022-08-25T06:44:16;12.87;;;9.60;;
2099;SDS011;1055;48.854;9.302;2022-08-25T06:46:42;14.57;;;9.10;;
2099;SDS011;1055;48.854;9.302;2022-08-25T06:49:08;14.47;;;9.63;;
2099;SDS011;1055;48.854;9.302;2022-08-25T06:51:34;13.93;;;9.37;;
2099;SDS011;1055;48.854;9.302;2022-08-25T06:54:00;14.97;;;9.33;;
2099;SDS011;1055;48.854;9.302;2022-08-25T06:56:25;13.10;;;9.90;;
2099;SDS011;1055;48.854;9.302;2022-08-25T06:58:51;12.87;;;9.27;;
2099;SDS011;1055;48.854;9.302;2022-08-25T07:01:21;13.60;;;9.90;;
2099;SDS011;1055;48.854;9.302;2022-08-25T07:03:50;13.63;;;9.23;;
2099;SDS011;1055;48.854;9.302;2022-08-25T07:06:21;13.50;;;10.10;;
2099;SDS011;1055;48.854;9.302;2022-08-25T07:08:47;13.70;;;9.30;;
2099;SDS011;1055;48.854;9.302;2022-08-25T07:11:14;14.47;;;9.43;;
2099;SDS011;1055;48.854;9.302;2022-08-25T07:13:40;13.33;;;10.20;;
2099;SDS011;1055;48.854;9.302;2022-08-25T07:16:06;15.07;;;11.30;;
2099;SDS011;1055;48.854;9.302;2022-08-25T07:18:33;11.83;;;9.33;;
2099;SDS011;1055;48.854;9.302;2022-08-25T07:20:59;12.93;;;8.93;;
2099;SDS011;1055;48.854;9.302;2022-08-25T07:23:25;11.03;;;8.90;;
2099;SDS011;1055;48.854;9.302;2022-08-25T07:25:52;13.23;;;9.30;;
2099;SDS011;1055;48.854;9.302;2022-08-25T07:28:19;11.83;;;8.10;;
2099;SDS011;1055;48.854;9.302;2022-08-25T07:30:46;11.97;;;8.33;;
2099;SDS011;1055;48.854;9.302;2022-08-25T07:33:13;11.10;;;8.60;;
2099;SDS011;1055;48.854;9.302;2022-08-25T07:35:38;11.17;;;8.80;;
2099;SDS011;1055;48.854;9.302;2022-08-25T07:38:05;12.70;;;8.30;;
2099;SDS011;1055;48.854;9.302;2022-08-25T07:40:33;13.90;;;9.40;;
2099;SDS011;1055;48.854;9.302;2022-08-25T07:43:01;11.13;;;8.13;;
2099;SDS011;1055;48.854;9.302;2022-08-25T07:45:30;13.20;;;7.67;;
2099;SDS011;1055;48.854;9.302;2022-08-25T07:48:04;11.30;;;8.30;;
2099;SDS011;1055;48.854;9.302;2022-08-25T07:50:33;9.90;;;7.50;;
2099;SDS011;1055;48.854;9.302;2022-08-25T07:53:02;10.60;;;8.27;;
2099;SDS011;1055;48.854;9.302;2022-08-25T07:55:28;9.70;;;7.90;;
2099;SDS011;1055;48.854;9.302;2022-08-25T07:57:54;11.90;;;7.30;;
2099;SDS011;1055;48.854;9.302;2022-08-25T08:00:22;10.57;;;7.50;;
2099;SDS011;1055;48.854;9.302;2022-08-25T08:02:51;13.00;;;7.77;;
2099;SDS011;1055;48.854;9.302;2022-08-25T08:05:16;11.40;;;8.37;;
2099;SDS011;1055;48.854;9.302;2022-08-25T08:07:42;10.90;;;7.70;;
2099;SDS011;1055;48.854;9.302;2022-08-25T08:10:09;11.63;;;7.77;;
2099;SDS011;1055;48.854;9.302;2022-08-25T08:12:36;10.50;;;8.50;;
2099;SDS011;1055;48.854;9.302;2022-08-25T08:15:02;10.00;;;7.80;;
2099;SDS011;1055;48.854;9.302;2022-08-25T08:17:29;11.60;;;7.97;;
2099;SDS011;1055;48.854;9.302;2022-08-25T08:19:55;12.13;;;8.37;;
2099;SDS011;1055;48.854;9.302;2022-08-25T08:22:21;10.20;;;7.27;;
2099;SDS011;1055;48.854;9.302;2022-08-25T08:24:47;12.30;;;7.93;;
2099;SDS011;1055;48.854;9.302;2022-08-25T08:27:13;10.07;;;7.60;;
2099;SDS011;1055;48.854;9.302;2022-08-25T08:29:39;10.20;;;8.17;;
2099;SDS011;1055;48.854;9.302;2022-08-25T08:32:06;9.57;;;7.40;;
2099;SDS011;1055;48.854;9.302;2022-08-25T08:34:34;9.40;;;7.17;;
2099;SDS011;1055;48.854;9.302;2022-08-25T08:37:00;12.40;;;7.53;;
2099;SDS011;1055;48.854;9.302;2022-08-25T08:39:26;11.07;;;7.40;;
2099;SDS011;1055;48.854;9.302;2022-08-25T08:41:56;9.90;;;7.47;;
2099;SDS011;1055;48.854;9.302;2022-08-25T08:50:05;11.00;;;7.40;;
2099;SDS011;1055;48.854;9.302;2022-08-25T08:55:48;10.30;;;7.60;;
2099;SDS011;1055;48.854;9.302;2022-08-25T08:58:19;10.20;;;7.10;;
2099;SDS011;1055;48.854;9.302;2022-08-25T09:00:48;10.30;;;7.60;;
2099;SDS011;1055;48.854;9.302;2022-08-25T09:05:54;10.70;;;8.23;;
2099;SDS011;1055;48.854;9.302;2022-08-25T09:08:23;10.40;;;7.33;;
2099;SDS011;1055;48.854;9.302;2022-08-25T09:10:52;9.70;;;7.50;;
2099;SDS011;1055;48.854;9.302;2022-08-25T09:13:35;9.17;;;7.27;;
2099;SDS011;1055;48.854;9.302;2022-08-25T09:16:31;9.23;;;6.90;;
2099;SDS011;1055;48.854;9.302;2022-08-25T09:22:21;9.50;;;6.80;;
2099;SDS011;1055;48.854;9.302;2022-08-25T09:33:29;9.00;;;6.57;;
2099;SDS011;1055;48.854;9.302;2022-08-25T09:35:56;9.83;;;7.00;;
2099;SDS011;1055;48.854;9.302;2022-08-25T09:38:22;8.80;;;6.33;;
2099;SDS011;1055;48.854;9.302;2022-08-25T09:40:49;10.20;;;7.63;;
2099;SDS011;1055;48.854;9.302;2022-08-25T09:45:48;8.80;;;6.53;;
2099;SDS011;1055;48.854;9.302;2022-08-25T09:50:50;10.80;;;7.23;;
2099;SDS011;1055;48.854;9.302;2022-08-25T09:53:21;10.13;;;7.50;;
2099;SDS011;1055;48.854;9.302;2022-08-25T09:55:51;9.50;;;6.27;;
2099;SDS011;1055;48.854;9.302;2022-08-25T09:58:23;9.13;;;6.87;;
2099;SDS011;1055;48.854;9.302;2022-08-25T10:01:31;9.53;;;6.53;;
2099;SDS011;1055;48.854;9.302;2022-08-25T10:03:54;9.27;;;6.40;;
2099;SDS011;1055;48.854;9.302;2022-08-25T10:06:35;10.17;;;6.83;;
2099;SDS011;1055;48.854;9.302;2022-08-25T10:09:27;9.87;;;6.50;;
2099;SDS011;1055;48.854;9.302;2022-08-25T10:11:59;9.20;;;7.00;;
2099;SDS011;1055;48.854;9.302;2022-08-25T10:17:15;9.20;;;7.00;;
2099;SDS011;1055;48.854;9.302;2022-08-25T10:19:41;9.60;;;6.70;;
2099;SDS011;1055;48.854;9.302;2022-08-25T10:22:09;10.07;;;6.63;;
2099;SDS011;1055;48.854;9.302;2022-08-25T10:24:44;9.10;;;6.50;;
2099;SDS011;1055;48.854;9.302;2022-08-25T10:27:26;10.40;;;7.20;;
2099;SDS011;1055;48.854;9.302;2022-08-25T10:30:04;10.90;;;6.83;;
2099;SDS011;1055;48.854;9.302;2022-08-25T10:36:05;10.10;;;6.80;;
2099;SDS011;1055;48.854;9.302;2022-08-25T10:38:50;9.27;;;6.47;;
2099;SDS011;1055;48.854;9.302;2022-08-25T10:43:59;8.80;;;6.10;;
2099;SDS011;1055;48.854;9.302;2022-08-25T10:49:45;8.23;;;5.60;;
2099;SDS011;1055;48.854;9.302;2022-08-25T10:57:59;9.80;;;6.60;;
2099;SDS011;1055;48.854;9.302;2022-08-25T11:00:43;12.27;;;6.97;;
2099;SDS011;1055;48.854;9.302;2022-08-25T11:05:58;6.70;;;4.60;;
2099;SDS011;1055;48.854;9.302;2022-08-25T11:14:20;7.70;;;5.10;;
2099;SDS011;1055;48.854;9.302;2022-08-25T11:19:31;9.00;;;5.73;;
2099;SDS011;1055;48.854;9.302;2022-08-25T11:22:11;8.20;;;5.17;;
2099;SDS011;1055;48.854;9.302;2022-08-25T11:27:45;8.73;;;4.80;;
2099;SDS011;1055;48.854;9.302;2022-08-25T11:30:17;7.33;;;4.97;;
2099;SDS011;1055;48.854;9.302;2022-08-25T11:32:45;9.23;;;5.20;;
2099;SDS011;1055;48.854;9.302;2022-08-25T11:35:15;7.40;;;5.23;;
2099;SDS011;1055;48.854;9.302;2022-08-25T11:51:44;7.20;;;5.30;;
2099;SDS011;1055;48.854;9.302;2022-08-25T12:10:55;7.77;;;5.80;;
2099;SDS011;1055;48.854;9.302;2022-08-25T12:13:25;7.67;;;5.57;;
2099;SDS011;1055;48.854;9.302;2022-08-25T12:21:47;7.90;;;5.40;;
2099;SDS011;1055;48.854;9.302;2022-08-25T12:24:15;7.77;;;5.57;;
2099;SDS011;1055;48.854;9.302;2022-08-25T12:29:25;7.47;;;5.30;;
2099;SDS011;1055;48.854;9.302;2022-08-25T12:37:28;7.30;;;5.13;;
2099;SDS011;1055;48.854;9.302;2022-08-25T12:42:29;7.80;;;5.20;;
2099;SDS011;1055;48.854;9.302;2022-08-25T12:45:13;8.37;;;5.83;;
2099;SDS011;1055;48.854;9.302;2022-08-25T12:48:37;8.20;;;4.47;;
2099;SDS011;1055;48.854;9.302;2022-08-25T12:53:31;7.13;;;5.00;;
2099;SDS011;1055;48.854;9.302;2022-08-25T12:56:05;6.80;;;4.50;;
2099;SDS011;1055;48.854;9.302;2022-08-25T13:02:05;6.70;;;4.83;;
2099;SDS011;1055;48.854;9.302;2022-08-25T13:09:46;6.47;;;4.50;;
2099;SDS011;1055;48.854;9.302;2022-08-25T13:15:24;7.23;;;4.87;;
2099;SDS011;1055;48.854;9.302;2022-08-25T13:18:21;7.40;;;4.43;;
2099;SDS011;1055;48.854;9.302;2022-08-25T13:21:36;6.43;;;4.07;;
2099;SDS011;1055;48.854;9.302;2022-08-25T13:23:46;7.20;;;4.53;;
2099;SDS011;1055;48.854;9.302;2022-08-25T13:26:15;6.97;;;4.63;;
2099;SDS011;1055;48.854;9.302;2022-08-25T13:29:00;6.17;;;4.00;;
2099;SDS011;1055;48.854;9.302;2022-08-25T13:31:36;8.90;;;5.10;;
2099;SDS011;1055;48.854;9.302;2022-08-25T13:34:17;6.97;;;4.57;;
2099;SDS011;1055;48.854;9.302;2022-08-25T13:36:46;7.10;;;4.53;;
2099;SDS011;1055;48.854;9.302;2022-08-25T13:39:32;6.83;;;4.73;;
2099;SDS011;1055;48.854;9.302;2022-08-25T13:41:59;6.63;;;4.33;;
2099;SDS011;1055;48.854;9.302;2022-08-25T13:44:27;7.00;;;4.73;;
2099;SDS011;1055;48.854;9.302;2022-08-25T13:49:33;8.83;;;4.83;;
2099;SDS011;1055;48.854;9.302;2022-08-25T13:52:00;7.00;;;4.60;;
2099;SDS011;1055;48.854;9.302;2022-08-25T13:54:27;6.70;;;4.77;;
2099;SDS011;1055;48.854;9.302;2022-08-25T13:59:47;8.60;;;5.50;;
2099;SDS011;1055;48.854;9.302;2022-08-25T14:02:25;6.53;;;4.13;;
2099;SDS011;1055;48.854;9.302;2022-08-25T14:05:03;6.77;;;4.50;;
2099;SDS011;1055;48.854;9.302;2022-08-25T14:07:29;7.07;;;4.90;;
2099;SDS011;1055;48.854;9.302;2022-08-25T14:09:58;7.50;;;4.97;;
2099;SDS011;1055;48.854;9.302;2022-08-25T14:12:29;7.23;;;4.50;;
2099;SDS011;1055;48.854;9.302;2022-08-25T14:17:32;6.40;;;4.20;;
2099;SDS011;1055;48.854;9.302;2022-08-25T14:19:59;6.37;;;4.37;;
2099;SDS011;1055;48.854;9.302;2022-08-25T14:22:25;7.60;;;4.50;;
2099;SDS011;1055;48.854;9.302;2022-08-25T14:24:51;6.60;;;4.60;;
2099;SDS011;1055;48.854;9.302;2022-08-25T14:27:18;6.70;;;4.23;;
2099;SDS011;1055;48.854;9.302;2022-08-25T14:29:44;7.30;;;4.70;;
2099;SDS011;1055;48.854;9.302;2022-08-25T14:32:10;7.00;;;4.77;;
2099;SDS011;1055;48.854;9.302;2022-08-25T14:34:37;7.00;;;4.70;;
2099;SDS011;1055;48.854;9.302;2022-08-25T14:37:16;13.60;;;4.80;;
2099;SDS011;1055;48.854;9.302;2022-08-25T14:39:44;7.10;;;4.87;;
2099;SDS011;1055;48.854;9.302;2022-08-25T14:42:10;8.90;;;5.70;;
2099;SDS011;1055;48.854;9.302;2022-08-25T14:44:36;7.47;;;5.00;;
2099;SDS011;1055;48.854;9.302;2022-08-25T14:47:02;6.90;;;4.60;;
2099;SDS011;1055;48.854;9.302;2022-08-25T14:49:32;6.93;;;4.97;;
2099;SDS011;1055;48.854;9.302;2022-08-25T14:52:06;7.03;;;4.73;;
2099;SDS011;1055;48.854;9.302;2022-08-25T14:54:53;6.60;;;4.10;;
2099;SDS011;1055;48.854;9.302;2022-08-25T14:57:19;8.93;;;5.43;;
2099;SDS011;1055;48.854;9.302;2022-08-25T14:59:44;6.00;;;4.03;;
2099;SDS011;1055;48.854;9.302;2022-08-25T15:02:11;7.50;;;5.20;;
2099;SDS011;1055;48.854;9.302;2022-08-25T15:04:42;6.60;;;4.50;;
2099;SDS011;1055;48.854;9.302;2022-08-25T15:07:14;6.83;;;4.47;;
2099;SDS011;1055;48.854;9.302;2022-08-25T15:09:59;6.60;;;4.20;;
2099;SDS011;1055;48.854;9.302;2022-08-25T15:12:25;7.30;;;4.97;;
2099;SDS011;1055;48.854;9.302;2022-08-25T15:14:50;6.23;;;3.90;;
2099;SDS011;1055;48.854;9.302;2022-08-25T15:17:16;8.40;;;4.60;;
2099;SDS011;1055;48.854;9.302;2022-08-25T15:19:42;7.17;;;4.63;;
2099;SDS011;1055;48.854;9.302;2022-08-25T15:22:08;7.13;;;4.90;;
2099;SDS011;1055;48.854;9.302;2022-08-25T15:24:34;6.83;;;4.43;;
2099;SDS011;1055;48.854;9.302;2022-08-25T15:27:00;6.57;;;4.47;;
2099;SDS011;1055;48.854;9.302;2022-08-25T15:29:31;7.70;;;5.00;;
2099;SDS011;1055;48.854;9.302;2022-08-25T15:31:59;8.93;;;4.83;;
2099;SDS011;1055;48.854;9.302;2022-08-25T15:34:26;6.93;;;4.77;;
2099;SDS011;1055;48.854;9.302;2022-08-25T15:36:53;6.90;;;4.60;;
2099;SDS011;1055;48.854;9.302;2022-08-25T15:39:20;8.40;;;4.80;;
2099;SDS011;1055;48.854;9.302;2022-08-25T15:41:46;7.20;;;4.67;;
2099;SDS011;1055;48.854;9.302;2022-08-25T15:44:16;7.53;;;4.10;;
2099;SDS011;1055;48.854;9.302;2022-08-25T15:46:43;9.53;;;4.60;;
2099;SDS011;1055;48.854;9.302;2022-08-25T15:49:10;7.83;;;5.30;;
2099;SDS011;1055;48.854;9.302;2022-08-25T15:51:35;8.70;;;4.73;;
2099;SDS011;1055;48.854;9.302;2022-08-25T15:54:02;7.23;;;5.13;;
2099;SDS011;1055;48.854;9.302;2022-08-25T15:56:28;9.00;;;4.87;;
2099;SDS011;1055;48.854;9.302;2022-08-25T15:58:55;8.30;;;5.17;;
2099;SDS011;1055;48.854;9.302;2022-08-25T16:01:23;8.93;;;4.90;;
2099;SDS011;1055;48.854;9.302;2022-08-25T16:03:50;9.50;;;4.63;;
2099;SDS011;1055;48.854;9.302;2022-08-25T16:06:17;8.47;;;5.20;;
2099;SDS011;1055;48.854;9.302;2022-08-25T16:08:43;15.30;;;7.33;;
2099;SDS011;1055;48.854;9.302;2022-08-25T16:11:23;16.60;;;7.50;;
2099;SDS011;1055;48.854;9.302;2022-08-25T16:13:53;20.93;;;10.07;;
2099;SDS011;1055;48.854;9.302;2022-08-25T16:16:20;14.13;;;7.27;;
2099;SDS011;1055;48.854;9.302;2022-08-25T16:18:48;23.13;;;11.70;;
2099;SDS011;1055;48.854;9.302;2022-08-25T16:21:15;22.87;;;9.93;;
2099;SDS011;1055;48.854;9.302;2022-08-25T16:23:44;16.67;;;7.13;;
2099;SDS011;1055;48.854;9.302;2022-08-25T16:26:11;8.57;;;5.20;;
2099;SDS011;1055;48.854;9.302;2022-08-25T16:28:37;15.73;;;8.60;;
2099;SDS011;1055;48.854;9.302;2022-08-25T16:31:04;11.00;;;5.77;;
2099;SDS011;1055;48.854;9.302;2022-08-25T16:33:33;7.73;;;4.83;;
2099;SDS011;1055;48.854;9.302;2022-08-25T16:36:41;8.47;;;5.80;;
2099;SDS011;1055;48.854;9.302;2022-08-25T16:38:48;8.20;;;5.30;;
2099;SDS011;1055;48.854;9.302;2022-08-25T16:41:23;22.53;;;10.47;;
2099;SDS011;1055;48.854;9.302;2022-08-25T16:43:53;9.30;;;5.00;;
2099;SDS011;1055;48.854;9.302;2022-08-25T16:46:19;7.93;;;4.67;;
2099;SDS011;1055;48.854;9.302;2022-08-25T16:48:46;21.33;;;7.77;;
2099;SDS011;1055;48.854;9.302;2022-08-25T16:51:13;7.10;;;5.20;;
2099;SDS011;1055;48.854;9.302;2022-08-25T16:53:41;7.03;;;4.77;;
2099;SDS011;1055;48.854;9.302;2022-08-25T16:56:26;10.93;;;5.50;;
2099;SDS011;1055;48.854;9.302;2022-08-25T16:58:55;7.90;;;4.93;;
2099;SDS011;1055;48.854;9.302;2022-08-25T17:01:22;16.63;;;9.53;;
2099;SDS011;1055;48.854;9.302;2022-08-25T17:03:53;7.60;;;5.43;;
2099;SDS011;1055;48.854;9.302;2022-08-25T17:06:21;7.57;;;5.20;;
2099;SDS011;1055;48.854;9.302;2022-08-25T17:08:48;10.30;;;6.33;;
2099;SDS011;1055;48.854;9.302;2022-08-25T17:11:22;8.23;;;5.40;;
2099;SDS011;1055;48.854;9.302;2022-08-25T17:13:53;8.37;;;5.47;;
2099;SDS011;1055;48.854;9.302;2022-08-25T17:16:22;8.63;;;5.67;;
2099;SDS011;1055;48.854;9.302;2022-08-25T17:18:52;10.83;;;5.27;;
2099;SDS011;1055;48.854;9.302;2022-08-25T17:21:19;11.87;;;5.00;;
2099;SDS011;1055;48.854;9.302;2022-08-25T17:23:45;8.80;;;5.97;;
2099;SDS011;1055;48.854;9.302;2022-08-25T17:26:12;8.17;;;4.83;;
2099;SDS011;1055;48.854;9.302;2022-08-25T17:28:39;11.40;;;7.10;;
2099;SDS011;1055;48.854;9.302;2022-08-25T17:31:07;9.17;;;5.63;;
2099;SDS011;1055;48.854;9.302;2022-08-25T17:33:34;12.43;;;5.77;;